sensor_id;sensor_type;location;lat;lon;timestamp;P1;durP1;ratioP1;P2;durP2;ratioP2
75297;SDS011;63896;45.990;18.688;2022-12-01T00:00:57;41.17;;;20.42;;
75297;SDS011;63896;45.990;18.688;2022-12-01T00:04:00;38.60;;;19.50;;
75297;SDS011;63896;45.990;18.688;2022-12-01T00:07:04;35.40;;;18.67;;
75297;SDS011;63896;45.990;18.688;2022-12-01T00:10:08;44.03;;;19.55;;
75297;SDS011;63896;45.990;18.688;2022-12-01T00:13:27;35.15;;;17.58;;
75297;SDS011;63896;45.990;18.688;2022-12-01T00:16:31;38.80;;;18.20;;
75297;SDS011;63896;45.990;18.688;2022-12-01T00:19:35;38.13;;;17.93;;
75297;SDS011;63896;45.990;18.688;2022-12-01T00:22:42;35.50;;;18.50;;
75297;SDS011;63896;45.990;18.688;2022-12-01T00:25:48;37.80;;;18.52;;
75297;SDS011;63896;45.990;18.688;2022-12-01T00:28:52;39.92;;;18.80;;
75297;SDS011;63896;45.990;18.688;2022-12-01T00:32:00;41.63;;;18.80;;
75297;SDS011;63896;45.990;18.688;2022-12-01T00:35:03;38.53;;;17.37;;
75297;SDS011;63896;45.990;18.688;2022-12-01T00:38:07;42.30;;;18.85;;
75297;SDS011;63896;45.990;18.688;2022-12-01T00:41:09;36.97;;;18.35;;
75297;SDS011;63896;45.990;18.688;2022-12-01T00:44:12;37.55;;;18.65;;
75297;SDS011;63896;45.990;18.688;2022-12-01T00:47:15;43.65;;;19.85;;
75297;SDS011;63896;45.990;18.688;2022-12-01T00:50:18;40.80;;;21.27;;
75297;SDS011;63896;45.990;18.688;2022-12-01T00:53:21;38.55;;;19.60;;
75297;SDS011;63896;45.990;18.688;2022-12-01T00:56:25;39.67;;;18.67;;
75297;SDS011;63896;45.990;18.688;2022-12-01T00:59:28;42.78;;;22.20;;
75297;SDS011;63896;45.990;18.688;2022-12-01T01:02:31;41.35;;;20.83;;
75297;SDS011;63896;45.990;18.688;2022-12-01T01:05:35;37.83;;;17.97;;
75297;SDS011;63896;45.990;18.688;2022-12-01T01:08:42;42.60;;;20.05;;
75297;SDS011;63896;45.990;18.688;2022-12-01T01:11:45;39.15;;;19.10;;
75297;SDS011;63896;45.990;18.688;2022-12-01T01:14:47;38.92;;;18.17;;
75297;SDS011;63896;45.990;18.688;2022-12-01T01:17:50;40.83;;;19.17;;
75297;SDS011;63896;45.990;18.688;2022-12-01T01:20:54;37.80;;;18.77;;
75297;SDS011;63896;45.990;18.688;2022-12-01T01:24:00;38.15;;;18.45;;
75297;SDS011;63896;45.990;18.688;2022-12-01T01:27:03;37.72;;;18.55;;
75297;SDS011;63896;45.990;18.688;2022-12-01T01:30:07;38.05;;;18.98;;
75297;SDS011;63896;45.990;18.688;2022-12-01T01:33:10;42.10;;;19.13;;
75297;SDS011;63896;45.990;18.688;2022-12-01T01:36:13;37.50;;;18.30;;
75297;SDS011;63896;45.990;18.688;2022-12-01T01:39:17;36.22;;;17.67;;
75297;SDS011;63896;45.990;18.688;2022-12-01T01:42:20;35.83;;;17.23;;
75297;SDS011;63896;45.990;18.688;2022-12-01T01:45:24;33.75;;;18.17;;
75297;SDS011;63896;45.990;18.688;2022-12-01T01:48:30;36.42;;;17.42;;
75297;SDS011;63896;45.990;18.688;2022-12-01T01:54:48;37.65;;;17.88;;
75297;SDS011;63896;45.990;18.688;2022-12-01T01:57:55;37.50;;;18.77;;
75297;SDS011;63896;45.990;18.688;2022-12-01T02:00:59;38.22;;;17.42;;
75297;SDS011;63896;45.990;18.688;2022-12-01T02:04:02;37.63;;;17.52;;
75297;SDS011;63896;45.990;18.688;2022-12-01T02:07:06;36.50;;;18.13;;
75297;SDS011;63896;45.990;18.688;2022-12-01T02:10:10;34.55;;;17.30;;
75297;SDS011;63896;45.990;18.688;2022-12-01T02:27:00;36.83;;;17.17;;
75297;SDS011;63896;45.990;18.688;2022-12-01T02:33:39;33.35;;;16.83;;
75297;SDS011;63896;45.990;18.688;2022-12-01T02:36:47;31.40;;;15.13;;
75297;SDS011;63896;45.990;18.688;2022-12-01T02:40:04;35.17;;;15.77;;
75297;SDS011;63896;45.990;18.688;2022-12-01T02:46:34;31.30;;;15.52;;
75297;SDS011;63896;45.990;18.688;2022-12-01T02:49:45;32.80;;;16.73;;
75297;SDS011;63896;45.990;18.688;2022-12-01T02:52:51;28.55;;;14.23;;
75297;SDS011;63896;45.990;18.688;2022-12-01T02:55:56;29.57;;;15.30;;
75297;SDS011;63896;45.990;18.688;2022-12-01T02:59:00;33.28;;;16.00;;
75297;SDS011;63896;45.990;18.688;2022-12-01T03:02:16;30.10;;;14.45;;
75297;SDS011;63896;45.990;18.688;2022-12-01T03:05:52;30.27;;;14.73;;
75297;SDS011;63896;45.990;18.688;2022-12-01T03:19:32;28.95;;;13.88;;
75297;SDS011;63896;45.990;18.688;2022-12-01T03:22:43;36.00;;;15.35;;
75297;SDS011;63896;45.990;18.688;2022-12-01T03:25:53;29.80;;;14.90;;
75297;SDS011;63896;45.990;18.688;2022-12-01T03:29:05;30.70;;;15.10;;
75297;SDS011;63896;45.990;18.688;2022-12-01T03:32:22;34.08;;;15.00;;
75297;SDS011;63896;45.990;18.688;2022-12-01T03:35:33;31.73;;;16.15;;
75297;SDS011;63896;45.990;18.688;2022-12-01T03:38:43;31.42;;;16.15;;
75297;SDS011;63896;45.990;18.688;2022-12-01T03:41:58;34.55;;;17.00;;
75297;SDS011;63896;45.990;18.688;2022-12-01T03:45:06;30.10;;;14.90;;
75297;SDS011;63896;45.990;18.688;2022-12-01T03:48:13;30.13;;;14.77;;
75297;SDS011;63896;45.990;18.688;2022-12-01T03:58:09;30.05;;;15.18;;
75297;SDS011;63896;45.990;18.688;2022-12-01T04:01:15;33.77;;;15.07;;
75297;SDS011;63896;45.990;18.688;2022-12-01T04:04:19;31.25;;;15.27;;
75297;SDS011;63896;45.990;18.688;2022-12-01T04:07:21;33.75;;;16.20;;
75297;SDS011;63896;45.990;18.688;2022-12-01T04:10:25;34.22;;;16.55;;
75297;SDS011;63896;45.990;18.688;2022-12-01T04:13:28;34.60;;;15.75;;
75297;SDS011;63896;45.990;18.688;2022-12-01T04:16:31;32.47;;;17.03;;
75297;SDS011;63896;45.990;18.688;2022-12-01T04:19:34;32.30;;;16.63;;
75297;SDS011;63896;45.990;18.688;2022-12-01T04:22:37;31.45;;;16.63;;
75297;SDS011;63896;45.990;18.688;2022-12-01T04:25:40;32.45;;;16.67;;
75297;SDS011;63896;45.990;18.688;2022-12-01T04:28:43;33.50;;;16.73;;
75297;SDS011;63896;45.990;18.688;2022-12-01T04:31:46;32.17;;;15.47;;
75297;SDS011;63896;45.990;18.688;2022-12-01T04:34:49;31.48;;;16.75;;
75297;SDS011;63896;45.990;18.688;2022-12-01T04:37:51;33.35;;;16.10;;
75297;SDS011;63896;45.990;18.688;2022-12-01T04:40:54;30.85;;;14.65;;
75297;SDS011;63896;45.990;18.688;2022-12-01T04:43:57;34.53;;;17.08;;
75297;SDS011;63896;45.990;18.688;2022-12-01T04:47:00;30.17;;;14.40;;
75297;SDS011;63896;45.990;18.688;2022-12-01T04:50:04;31.15;;;15.02;;
75297;SDS011;63896;45.990;18.688;2022-12-01T04:53:07;31.42;;;14.80;;
75297;SDS011;63896;45.990;18.688;2022-12-01T04:56:10;30.80;;;16.35;;
75297;SDS011;63896;45.990;18.688;2022-12-01T04:59:13;30.30;;;16.08;;
75297;SDS011;63896;45.990;18.688;2022-12-01T05:02:16;35.87;;;17.90;;
75297;SDS011;63896;45.990;18.688;2022-12-01T05:05:19;33.33;;;16.67;;
75297;SDS011;63896;45.990;18.688;2022-12-01T05:08:22;36.97;;;17.90;;
75297;SDS011;63896;45.990;18.688;2022-12-01T05:11:25;32.85;;;17.40;;
75297;SDS011;63896;45.990;18.688;2022-12-01T05:14:29;33.83;;;17.27;;
75297;SDS011;63896;45.990;18.688;2022-12-01T05:17:32;29.80;;;15.53;;
75297;SDS011;63896;45.990;18.688;2022-12-01T05:20:38;32.15;;;15.95;;
75297;SDS011;63896;45.990;18.688;2022-12-01T05:23:59;34.65;;;16.83;;
75297;SDS011;63896;45.990;18.688;2022-12-01T05:27:02;33.13;;;16.67;;
75297;SDS011;63896;45.990;18.688;2022-12-01T05:30:05;35.08;;;16.27;;
75297;SDS011;63896;45.990;18.688;2022-12-01T05:33:08;34.67;;;16.43;;
75297;SDS011;63896;45.990;18.688;2022-12-01T05:36:11;35.25;;;17.52;;
75297;SDS011;63896;45.990;18.688;2022-12-01T05:39:14;33.67;;;15.93;;
75297;SDS011;63896;45.990;18.688;2022-12-01T05:42:17;35.58;;;17.40;;
75297;SDS011;63896;45.990;18.688;2022-12-01T05:45:19;31.58;;;15.93;;
75297;SDS011;63896;45.990;18.688;2022-12-01T05:48:22;32.53;;;15.93;;
75297;SDS011;63896;45.990;18.688;2022-12-01T05:51:25;34.95;;;16.70;;
75297;SDS011;63896;45.990;18.688;2022-12-01T05:54:28;37.38;;;17.38;;
75297;SDS011;63896;45.990;18.688;2022-12-01T05:57:32;40.17;;;17.38;;
75297;SDS011;63896;45.990;18.688;2022-12-01T06:00:35;35.38;;;17.45;;
75297;SDS011;63896;45.990;18.688;2022-12-01T06:03:47;34.83;;;16.77;;
75297;SDS011;63896;45.990;18.688;2022-12-01T06:06:49;32.15;;;16.02;;
75297;SDS011;63896;45.990;18.688;2022-12-01T06:09:52;36.25;;;17.45;;
75297;SDS011;63896;45.990;18.688;2022-12-01T06:12:55;35.92;;;17.27;;
75297;SDS011;63896;45.990;18.688;2022-12-01T06:15:59;37.15;;;18.17;;
75297;SDS011;63896;45.990;18.688;2022-12-01T06:19:04;36.47;;;17.70;;
75297;SDS011;63896;45.990;18.688;2022-12-01T06:22:07;39.28;;;19.02;;
75297;SDS011;63896;45.990;18.688;2022-12-01T06:25:10;43.53;;;19.80;;
75297;SDS011;63896;45.990;18.688;2022-12-01T06:28:13;38.50;;;19.10;;
75297;SDS011;63896;45.990;18.688;2022-12-01T06:31:16;37.50;;;18.00;;
75297;SDS011;63896;45.990;18.688;2022-12-01T06:34:19;47.27;;;20.80;;
75297;SDS011;63896;45.990;18.688;2022-12-01T06:37:22;41.25;;;21.45;;
75297;SDS011;63896;45.990;18.688;2022-12-01T06:40:25;44.28;;;20.83;;
75297;SDS011;63896;45.990;18.688;2022-12-01T06:43:29;42.00;;;20.35;;
75297;SDS011;63896;45.990;18.688;2022-12-01T06:46:32;39.88;;;20.88;;
75297;SDS011;63896;45.990;18.688;2022-12-01T06:49:35;44.50;;;21.07;;
75297;SDS011;63896;45.990;18.688;2022-12-01T06:52:39;46.65;;;20.25;;
75297;SDS011;63896;45.990;18.688;2022-12-01T06:55:42;55.65;;;21.10;;
75297;SDS011;63896;45.990;18.688;2022-12-01T06:58:45;39.53;;;19.83;;
75297;SDS011;63896;45.990;18.688;2022-12-01T07:01:51;38.53;;;19.33;;
75297;SDS011;63896;45.990;18.688;2022-12-01T07:04:54;41.70;;;19.10;;
75297;SDS011;63896;45.990;18.688;2022-12-01T07:07:58;39.90;;;20.08;;
75297;SDS011;63896;45.990;18.688;2022-12-01T07:11:06;38.60;;;19.52;;
75297;SDS011;63896;45.990;18.688;2022-12-01T07:14:23;37.58;;;18.88;;
75297;SDS011;63896;45.990;18.688;2022-12-01T07:17:31;35.88;;;18.02;;
75297;SDS011;63896;45.990;18.688;2022-12-01T07:20:34;37.80;;;18.73;;
75297;SDS011;63896;45.990;18.688;2022-12-01T07:23:37;36.22;;;17.45;;
75297;SDS011;63896;45.990;18.688;2022-12-01T07:26:41;37.88;;;18.77;;
75297;SDS011;63896;45.990;18.688;2022-12-01T07:29:45;36.80;;;18.83;;
75297;SDS011;63896;45.990;18.688;2022-12-01T07:32:49;38.38;;;18.02;;
75297;SDS011;63896;45.990;18.688;2022-12-01T07:35:54;37.20;;;18.27;;
75297;SDS011;63896;45.990;18.688;2022-12-01T07:38:58;32.35;;;17.40;;
75297;SDS011;63896;45.990;18.688;2022-12-01T07:42:01;36.42;;;17.63;;
75297;SDS011;63896;45.990;18.688;2022-12-01T07:45:06;40.75;;;18.10;;
75297;SDS011;63896;45.990;18.688;2022-12-01T07:48:10;33.75;;;16.88;;
75297;SDS011;63896;45.990;18.688;2022-12-01T07:51:13;34.97;;;16.73;;
75297;SDS011;63896;45.990;18.688;2022-12-01T07:54:18;32.65;;;16.05;;
75297;SDS011;63896;45.990;18.688;2022-12-01T07:57:22;33.60;;;17.13;;
75297;SDS011;63896;45.990;18.688;2022-12-01T08:00:25;35.05;;;16.80;;
75297;SDS011;63896;45.990;18.688;2022-12-01T08:03:28;34.63;;;16.42;;
75297;SDS011;63896;45.990;18.688;2022-12-01T08:06:36;41.67;;;19.50;;
75297;SDS011;63896;45.990;18.688;2022-12-01T08:09:42;39.45;;;18.95;;
75297;SDS011;63896;45.990;18.688;2022-12-01T08:12:47;38.75;;;20.30;;
75297;SDS011;63896;45.990;18.688;2022-12-01T08:15:51;31.10;;;16.35;;
75297;SDS011;63896;45.990;18.688;2022-12-01T08:19:01;31.77;;;16.42;;
75297;SDS011;63896;45.990;18.688;2022-12-01T08:22:07;29.70;;;16.33;;
75297;SDS011;63896;45.990;18.688;2022-12-01T08:25:10;33.63;;;15.80;;
75297;SDS011;63896;45.990;18.688;2022-12-01T08:28:13;29.15;;;15.82;;
75297;SDS011;63896;45.990;18.688;2022-12-01T08:31:18;29.85;;;15.93;;
75297;SDS011;63896;45.990;18.688;2022-12-01T08:34:21;30.08;;;16.48;;
75297;SDS011;63896;45.990;18.688;2022-12-01T08:37:26;32.33;;;17.23;;
75297;SDS011;63896;45.990;18.688;2022-12-01T08:40:29;30.25;;;15.05;;
75297;SDS011;63896;45.990;18.688;2022-12-01T08:43:32;31.13;;;17.95;;
75297;SDS011;63896;45.990;18.688;2022-12-01T08:46:55;25.85;;;14.82;;
75297;SDS011;63896;45.990;18.688;2022-12-01T08:49:59;28.63;;;15.13;;
75297;SDS011;63896;45.990;18.688;2022-12-01T08:53:02;27.13;;;15.07;;
75297;SDS011;63896;45.990;18.688;2022-12-01T08:56:06;30.10;;;15.82;;
75297;SDS011;63896;45.990;18.688;2022-12-01T08:59:12;29.17;;;16.55;;
75297;SDS011;63896;45.990;18.688;2022-12-01T09:02:17;29.90;;;15.88;;
75297;SDS011;63896;45.990;18.688;2022-12-01T09:05:29;27.60;;;15.32;;
75297;SDS011;63896;45.990;18.688;2022-12-01T09:08:33;30.23;;;15.27;;
75297;SDS011;63896;45.990;18.688;2022-12-01T09:11:38;30.45;;;17.42;;
75297;SDS011;63896;45.990;18.688;2022-12-01T09:14:49;28.08;;;16.25;;
75297;SDS011;63896;45.990;18.688;2022-12-01T09:17:55;28.85;;;16.00;;
75297;SDS011;63896;45.990;18.688;2022-12-01T09:20:58;26.30;;;15.43;;
75297;SDS011;63896;45.990;18.688;2022-12-01T09:24:02;23.43;;;13.50;;
75297;SDS011;63896;45.990;18.688;2022-12-01T09:27:07;26.38;;;14.73;;
75297;SDS011;63896;45.990;18.688;2022-12-01T09:30:12;24.13;;;13.40;;
75297;SDS011;63896;45.990;18.688;2022-12-01T09:33:15;25.20;;;13.73;;
75297;SDS011;63896;45.990;18.688;2022-12-01T09:36:20;27.67;;;14.48;;
75297;SDS011;63896;45.990;18.688;2022-12-01T09:39:23;24.80;;;14.23;;
75297;SDS011;63896;45.990;18.688;2022-12-01T09:42:26;28.73;;;15.60;;
75297;SDS011;63896;45.990;18.688;2022-12-01T09:45:37;25.42;;;14.35;;
75297;SDS011;63896;45.990;18.688;2022-12-01T09:48:46;26.75;;;13.07;;
75297;SDS011;63896;45.990;18.688;2022-12-01T09:51:51;27.23;;;13.55;;
75297;SDS011;63896;45.990;18.688;2022-12-01T09:54:56;23.67;;;13.13;;
75297;SDS011;63896;45.990;18.688;2022-12-01T09:58:02;23.20;;;12.52;;
75297;SDS011;63896;45.990;18.688;2022-12-01T10:01:10;23.90;;;12.35;;
75297;SDS011;63896;45.990;18.688;2022-12-01T10:07:46;22.38;;;12.70;;
75297;SDS011;63896;45.990;18.688;2022-12-01T10:10:57;24.57;;;12.70;;
75297;SDS011;63896;45.990;18.688;2022-12-01T10:14:13;36.42;;;16.27;;
75297;SDS011;63896;45.990;18.688;2022-12-01T10:17:27;48.03;;;20.35;;
75297;SDS011;63896;45.990;18.688;2022-12-01T10:34:56;44.42;;;23.73;;
75297;SDS011;63896;45.990;18.688;2022-12-01T10:38:11;53.63;;;26.52;;
75297;SDS011;63896;45.990;18.688;2022-12-01T10:41:21;52.58;;;26.00;;
75297;SDS011;63896;45.990;18.688;2022-12-01T10:44:30;24.03;;;12.80;;
75297;SDS011;63896;45.990;18.688;2022-12-01T10:47:36;21.65;;;11.32;;
75297;SDS011;63896;45.990;18.688;2022-12-01T10:50:43;26.40;;;13.82;;
75297;SDS011;63896;45.990;18.688;2022-12-01T10:53:56;29.42;;;14.32;;
75297;SDS011;63896;45.990;18.688;2022-12-01T10:57:01;23.17;;;12.65;;
75297;SDS011;63896;45.990;18.688;2022-12-01T11:00:06;23.37;;;13.13;;
75297;SDS011;63896;45.990;18.688;2022-12-01T11:03:18;23.83;;;12.63;;
75297;SDS011;63896;45.990;18.688;2022-12-01T11:06:33;23.50;;;12.52;;
75297;SDS011;63896;45.990;18.688;2022-12-01T11:09:36;21.83;;;11.98;;
75297;SDS011;63896;45.990;18.688;2022-12-01T11:12:40;21.27;;;11.93;;
75297;SDS011;63896;45.990;18.688;2022-12-01T11:16:06;27.83;;;13.03;;
75297;SDS011;63896;45.990;18.688;2022-12-01T11:22:35;22.55;;;11.18;;
75297;SDS011;63896;45.990;18.688;2022-12-01T11:25:39;24.80;;;11.30;;
75297;SDS011;63896;45.990;18.688;2022-12-01T11:28:49;18.27;;;10.23;;
75297;SDS011;63896;45.990;18.688;2022-12-01T11:31:53;22.47;;;11.20;;
75297;SDS011;63896;45.990;18.688;2022-12-01T11:34:58;23.60;;;11.82;;
75297;SDS011;63896;45.990;18.688;2022-12-01T11:38:04;25.20;;;12.27;;
75297;SDS011;63896;45.990;18.688;2022-12-01T11:41:36;22.90;;;12.45;;
75297;SDS011;63896;45.990;18.688;2022-12-01T11:44:49;24.33;;;12.48;;
75297;SDS011;63896;45.990;18.688;2022-12-01T11:54:23;26.13;;;13.25;;
75297;SDS011;63896;45.990;18.688;2022-12-01T11:57:28;26.17;;;12.45;;
75297;SDS011;63896;45.990;18.688;2022-12-01T12:00:44;26.23;;;13.35;;
75297;SDS011;63896;45.990;18.688;2022-12-01T12:04:01;27.13;;;14.23;;
75297;SDS011;63896;45.990;18.688;2022-12-01T12:17:35;25.40;;;12.80;;
75297;SDS011;63896;45.990;18.688;2022-12-01T12:30:38;24.55;;;12.05;;
75297;SDS011;63896;45.990;18.688;2022-12-01T12:37:30;27.13;;;14.33;;
75297;SDS011;63896;45.990;18.688;2022-12-01T12:47:17;27.65;;;14.43;;
75297;SDS011;63896;45.990;18.688;2022-12-01T13:00:47;27.80;;;14.43;;
75297;SDS011;63896;45.990;18.688;2022-12-01T13:03:57;26.20;;;14.07;;
75297;SDS011;63896;45.990;18.688;2022-12-01T13:07:19;27.10;;;13.90;;
75297;SDS011;63896;45.990;18.688;2022-12-01T13:17:14;30.10;;;13.57;;
75297;SDS011;63896;45.990;18.688;2022-12-01T13:20:26;24.35;;;13.38;;
75297;SDS011;63896;45.990;18.688;2022-12-01T13:23:31;25.60;;;12.48;;
75297;SDS011;63896;45.990;18.688;2022-12-01T13:26:35;26.93;;;12.73;;
75297;SDS011;63896;45.990;18.688;2022-12-01T13:29:48;23.15;;;12.82;;
75297;SDS011;63896;45.990;18.688;2022-12-01T13:33:01;25.55;;;12.05;;
75297;SDS011;63896;45.990;18.688;2022-12-01T13:36:07;25.48;;;13.00;;
75297;SDS011;63896;45.990;18.688;2022-12-01T13:39:33;24.33;;;12.52;;
75297;SDS011;63896;45.990;18.688;2022-12-01T13:42:38;27.87;;;12.23;;
75297;SDS011;63896;45.990;18.688;2022-12-01T13:45:42;21.00;;;11.77;;
75297;SDS011;63896;45.990;18.688;2022-12-01T13:55:28;32.72;;;15.40;;
75297;SDS011;63896;45.990;18.688;2022-12-01T14:01:40;32.25;;;15.10;;
75297;SDS011;63896;45.990;18.688;2022-12-01T14:04:45;41.72;;;17.20;;
75297;SDS011;63896;45.990;18.688;2022-12-01T14:07:52;30.25;;;14.63;;
75297;SDS011;63896;45.990;18.688;2022-12-01T14:17:27;32.40;;;15.30;;
75297;SDS011;63896;45.990;18.688;2022-12-01T14:20:31;28.48;;;14.70;;
75297;SDS011;63896;45.990;18.688;2022-12-01T14:23:39;27.73;;;14.02;;
75297;SDS011;63896;45.990;18.688;2022-12-01T14:27:02;23.65;;;12.25;;
75297;SDS011;63896;45.990;18.688;2022-12-01T14:36:47;25.35;;;13.70;;
75297;SDS011;63896;45.990;18.688;2022-12-01T14:43:09;30.30;;;13.80;;
75297;SDS011;63896;45.990;18.688;2022-12-01T14:46:42;30.47;;;13.57;;
75297;SDS011;63896;45.990;18.688;2022-12-01T14:53:22;25.58;;;13.68;;
75297;SDS011;63896;45.990;18.688;2022-12-01T14:56:26;32.75;;;15.07;;
75297;SDS011;63896;45.990;18.688;2022-12-01T14:59:30;40.53;;;17.67;;
75297;SDS011;63896;45.990;18.688;2022-12-01T15:02:33;37.83;;;15.37;;
75297;SDS011;63896;45.990;18.688;2022-12-01T15:05:42;33.85;;;15.98;;
75297;SDS011;63896;45.990;18.688;2022-12-01T15:08:45;33.03;;;15.32;;
75297;SDS011;63896;45.990;18.688;2022-12-01T15:12:25;59.03;;;19.48;;
75297;SDS011;63896;45.990;18.688;2022-12-01T15:15:31;58.42;;;20.15;;
75297;SDS011;63896;45.990;18.688;2022-12-01T15:18:34;55.13;;;19.87;;
75297;SDS011;63896;45.990;18.688;2022-12-01T15:21:40;41.42;;;18.48;;
75297;SDS011;63896;45.990;18.688;2022-12-01T15:24:43;45.90;;;18.75;;
75297;SDS011;63896;45.990;18.688;2022-12-01T15:27:59;40.38;;;18.60;;
75297;SDS011;63896;45.990;18.688;2022-12-01T15:31:14;41.60;;;20.15;;
75297;SDS011;63896;45.990;18.688;2022-12-01T15:34:37;41.23;;;19.53;;
75297;SDS011;63896;45.990;18.688;2022-12-01T15:37:43;41.13;;;18.77;;
75297;SDS011;63896;45.990;18.688;2022-12-01T15:40:47;42.50;;;19.92;;
75297;SDS011;63896;45.990;18.688;2022-12-01T15:44:18;41.58;;;20.20;;
75297;SDS011;63896;45.990;18.688;2022-12-01T15:50:40;34.17;;;16.47;;
75297;SDS011;63896;45.990;18.688;2022-12-01T15:53:50;35.00;;;17.05;;
75297;SDS011;63896;45.990;18.688;2022-12-01T15:56:56;36.70;;;15.70;;
75297;SDS011;63896;45.990;18.688;2022-12-01T16:00:00;33.00;;;15.18;;
75297;SDS011;63896;45.990;18.688;2022-12-01T16:03:13;39.13;;;18.10;;
75297;SDS011;63896;45.990;18.688;2022-12-01T16:06:17;37.60;;;15.73;;
75297;SDS011;63896;45.990;18.688;2022-12-01T16:09:35;40.05;;;16.92;;
75297;SDS011;63896;45.990;18.688;2022-12-01T16:12:43;39.95;;;18.65;;
75297;SDS011;63896;45.990;18.688;2022-12-01T16:15:46;39.88;;;18.10;;
75297;SDS011;63896;45.990;18.688;2022-12-01T16:18:53;36.58;;;16.52;;
75297;SDS011;63896;45.990;18.688;2022-12-01T16:22:02;39.03;;;17.70;;
75297;SDS011;63896;45.990;18.688;2022-12-01T16:25:21;39.70;;;17.80;;
75297;SDS011;63896;45.990;18.688;2022-12-01T16:28:34;38.28;;;17.77;;
75297;SDS011;63896;45.990;18.688;2022-12-01T16:31:37;42.20;;;17.90;;
75297;SDS011;63896;45.990;18.688;2022-12-01T16:35:00;38.28;;;18.00;;
75297;SDS011;63896;45.990;18.688;2022-12-01T16:38:13;45.27;;;18.40;;
75297;SDS011;63896;45.990;18.688;2022-12-01T16:41:26;39.45;;;18.48;;
75297;SDS011;63896;45.990;18.688;2022-12-01T16:44:40;44.38;;;19.80;;
75297;SDS011;63896;45.990;18.688;2022-12-01T16:47:45;42.92;;;19.83;;
75297;SDS011;63896;45.990;18.688;2022-12-01T16:50:49;49.92;;;21.67;;
75297;SDS011;63896;45.990;18.688;2022-12-01T16:53:54;48.10;;;22.77;;
75297;SDS011;63896;45.990;18.688;2022-12-01T16:56:57;57.60;;;24.63;;
75297;SDS011;63896;45.990;18.688;2022-12-01T17:00:00;56.10;;;24.17;;
75297;SDS011;63896;45.990;18.688;2022-12-01T17:03:09;51.85;;;21.95;;
75297;SDS011;63896;45.990;18.688;2022-12-01T17:06:15;45.80;;;20.85;;
75297;SDS011;63896;45.990;18.688;2022-12-01T17:09:20;41.77;;;18.80;;
75297;SDS011;63896;45.990;18.688;2022-12-01T17:12:23;39.95;;;17.77;;
75297;SDS011;63896;45.990;18.688;2022-12-01T17:15:28;44.17;;;19.13;;
75297;SDS011;63896;45.990;18.688;2022-12-01T17:18:32;47.58;;;20.45;;
75297;SDS011;63896;45.990;18.688;2022-12-01T17:21:36;42.42;;;19.55;;
75297;SDS011;63896;45.990;18.688;2022-12-01T17:24:39;43.87;;;20.23;;
75297;SDS011;63896;45.990;18.688;2022-12-01T17:27:42;48.70;;;22.52;;
75297;SDS011;63896;45.990;18.688;2022-12-01T17:30:45;46.10;;;21.17;;
75297;SDS011;63896;45.990;18.688;2022-12-01T17:33:49;47.88;;;21.85;;
75297;SDS011;63896;45.990;18.688;2022-12-01T17:36:52;50.85;;;22.58;;
75297;SDS011;63896;45.990;18.688;2022-12-01T17:39:55;44.83;;;20.60;;
75297;SDS011;63896;45.990;18.688;2022-12-01T17:42:58;45.60;;;20.05;;
75297;SDS011;63896;45.990;18.688;2022-12-01T17:46:02;50.33;;;23.23;;
75297;SDS011;63896;45.990;18.688;2022-12-01T17:49:06;50.20;;;23.25;;
75297;SDS011;63896;45.990;18.688;2022-12-01T17:52:12;52.13;;;23.70;;
75297;SDS011;63896;45.990;18.688;2022-12-01T17:55:16;51.83;;;21.97;;
75297;SDS011;63896;45.990;18.688;2022-12-01T17:58:19;53.55;;;23.02;;
75297;SDS011;63896;45.990;18.688;2022-12-01T18:01:23;60.28;;;24.48;;
75297;SDS011;63896;45.990;18.688;2022-12-01T18:04:32;62.15;;;25.92;;
75297;SDS011;63896;45.990;18.688;2022-12-01T18:07:36;62.22;;;25.77;;
75297;SDS011;63896;45.990;18.688;2022-12-01T18:10:39;61.07;;;24.73;;
75297;SDS011;63896;45.990;18.688;2022-12-01T18:13:43;62.08;;;26.10;;
75297;SDS011;63896;45.990;18.688;2022-12-01T18:16:48;60.22;;;26.05;;
75297;SDS011;63896;45.990;18.688;2022-12-01T18:19:52;60.35;;;26.30;;
75297;SDS011;63896;45.990;18.688;2022-12-01T18:22:55;59.47;;;24.73;;
75297;SDS011;63896;45.990;18.688;2022-12-01T18:26:01;57.77;;;24.43;;
75297;SDS011;63896;45.990;18.688;2022-12-01T18:29:16;55.42;;;24.65;;
75297;SDS011;63896;45.990;18.688;2022-12-01T18:32:27;51.65;;;24.40;;
75297;SDS011;63896;45.990;18.688;2022-12-01T18:35:30;58.88;;;25.13;;
75297;SDS011;63896;45.990;18.688;2022-12-01T18:38:34;62.95;;;27.50;;
75297;SDS011;63896;45.990;18.688;2022-12-01T18:41:36;56.40;;;24.60;;
75297;SDS011;63896;45.990;18.688;2022-12-01T18:44:40;65.35;;;27.98;;
75297;SDS011;63896;45.990;18.688;2022-12-01T18:47:43;63.05;;;27.52;;
75297;SDS011;63896;45.990;18.688;2022-12-01T18:50:47;64.18;;;27.10;;
75297;SDS011;63896;45.990;18.688;2022-12-01T18:53:52;58.45;;;27.15;;
75297;SDS011;63896;45.990;18.688;2022-12-01T18:56:56;63.27;;;27.10;;
75297;SDS011;63896;45.990;18.688;2022-12-01T19:00:00;57.50;;;24.15;;
75297;SDS011;63896;45.990;18.688;2022-12-01T19:03:06;61.35;;;23.75;;
75297;SDS011;63896;45.990;18.688;2022-12-01T19:06:09;52.92;;;24.05;;
75297;SDS011;63896;45.990;18.688;2022-12-01T19:09:15;60.15;;;24.08;;
75297;SDS011;63896;45.990;18.688;2022-12-01T19:12:19;55.70;;;24.13;;
75297;SDS011;63896;45.990;18.688;2022-12-01T19:15:22;50.10;;;23.38;;
75297;SDS011;63896;45.990;18.688;2022-12-01T19:18:25;61.05;;;26.30;;
75297;SDS011;63896;45.990;18.688;2022-12-01T19:21:28;58.60;;;25.63;;
75297;SDS011;63896;45.990;18.688;2022-12-01T19:24:33;59.60;;;25.85;;
75297;SDS011;63896;45.990;18.688;2022-12-01T19:27:38;54.90;;;26.00;;
75297;SDS011;63896;45.990;18.688;2022-12-01T19:30:42;60.88;;;26.88;;
75297;SDS011;63896;45.990;18.688;2022-12-01T19:33:50;69.47;;;27.70;;
75297;SDS011;63896;45.990;18.688;2022-12-01T19:36:54;55.63;;;25.70;;
75297;SDS011;63896;45.990;18.688;2022-12-01T19:39:58;65.88;;;27.90;;
75297;SDS011;63896;45.990;18.688;2022-12-01T19:43:01;65.53;;;26.80;;
75297;SDS011;63896;45.990;18.688;2022-12-01T19:46:06;56.83;;;24.50;;
75297;SDS011;63896;45.990;18.688;2022-12-01T19:49:14;62.50;;;24.70;;
75297;SDS011;63896;45.990;18.688;2022-12-01T19:52:17;64.72;;;27.15;;
75297;SDS011;63896;45.990;18.688;2022-12-01T19:55:20;58.95;;;24.52;;
75297;SDS011;63896;45.990;18.688;2022-12-01T19:58:23;57.57;;;23.37;;
75297;SDS011;63896;45.990;18.688;2022-12-01T20:01:27;55.17;;;22.65;;
75297;SDS011;63896;45.990;18.688;2022-12-01T20:04:30;53.33;;;21.67;;
75297;SDS011;63896;45.990;18.688;2022-12-01T20:07:33;53.88;;;23.02;;
75297;SDS011;63896;45.990;18.688;2022-12-01T20:10:36;51.53;;;21.65;;
75297;SDS011;63896;45.990;18.688;2022-12-01T20:13:40;49.97;;;21.70;;
75297;SDS011;63896;45.990;18.688;2022-12-01T20:16:44;58.65;;;22.88;;
75297;SDS011;63896;45.990;18.688;2022-12-01T20:19:47;52.47;;;22.58;;
75297;SDS011;63896;45.990;18.688;2022-12-01T20:22:50;56.25;;;22.85;;